Terminal Aerodrome Forecast
Issued by NWS

Home | Current Version | Previous Version | Text Only | Print | Product List | Glossary On
Versions: 1 2 3 4 5 6 7 8 9 10 11 12 13 14 15 16 17 18 19 20
000
FTUS43 KDMX 302329
TAFMCW
TAF
KMCW 302329Z 3100/3124 34015G22KT P6SM SCT025 BKN040
     FM310600 34018G28KT P6SM SCT025 BKN030
     FM311200 34014G20KT P6SM SCT080=

USA.gov is the U.S. government's official web portal to all federal, state and local government web resources and services.